Downstream station:
SHEF ID: ENWK1 CROOKED C NR ENGLEWOOD, KS
STATION TYPE:
Regulating: Stage = 6.50, Flow = 243
PRECIP STAGE RIV-FLOW BAT-LOAD
in ft cfs volt
Ccp-Rev Ccp-Rev Ccp-Rev Ccp-Rev
(US/Central)
01/03 00:00 0.00 2.78 9 12.83
01/03 01:00 0.00 2.83 10 12.83
01/03 02:00 0.00 2.89 11 12.83
01/03 03:00 0.00 2.94 12 12.77
01/03 04:00 0.00 3.04 14 12.77
01/03 05:00 0.00 3.01 13 12.71
01/03 06:00 0.00 3.03 14 12.71
01/03 07:00 0.00 3.03 14 12.65
01/03 08:00 0.00 3.03 14 12.60
01/03 09:00 0.00 3.04 14 14.06
01/03 10:00 0.00 3.04 14 14.88
01/03 11:00 0.00 2.86 10 14.65
01/03 12:00 0.00 2.46 4 14.41
01/03 13:00 0.00 2.41 3 14.30
01/03 14:00 0.00 2.40 3 14.24
01/03 15:00 0.00 2.41 3 14.24
01/03 16:00 0.00 2.42 3 14.24
01/03 17:00 0.00 2.43 3 14.06
01/03 18:00 0.00 2.43 3 13.71
01/03 19:00 0.00 2.43 3 13.18
01/03 20:00 0.00 2.44 4 13.00
01/03 21:00 0.00 2.45 4 13.00
01/03 22:00 0.00 2.45 4 12.95
01/03 23:00 ---- ---- ---- ----